sensor_id;sensor_type;location;lat;lon;timestamp;noise_LAeq;noise_LA_min;noise_LA_max;noise_LA01;noise_LA95
57092;Laerm;42968;52.094;4.328;2022-11-15T00:02:17;40.39;35.66;46.07;;
57092;Laerm;42968;52.094;4.328;2022-11-15T00:04:42;48.63;36.91;63.37;;
57092;Laerm;42968;52.094;4.328;2022-11-15T00:07:07;50.64;36.20;69.87;;
57092;Laerm;42968;52.094;4.328;2022-11-15T00:09:33;55.98;37.12;72.05;;
57092;Laerm;42968;52.094;4.328;2022-11-15T00:11:58;53.80;36.91;70.30;;
57092;Laerm;42968;52.094;4.328;2022-11-15T00:14:23;42.62;37.52;51.97;;
57092;Laerm;42968;52.094;4.328;2022-11-15T00:16:48;56.56;37.32;71.79;;
57092;Laerm;42968;52.094;4.328;2022-11-15T00:19:14;55.95;37.88;74.94;;
57092;Laerm;42968;52.094;4.328;2022-11-15T00:21:39;54.44;36.91;74.33;;
57092;Laerm;42968;52.094;4.328;2022-11-15T00:24:04;53.60;36.69;69.19;;
57092;Laerm;42968;52.094;4.328;2022-11-15T00:26:30;56.33;37.12;73.38;;
57092;Laerm;42968;52.094;4.328;2022-11-15T00:28:55;54.51;36.20;71.06;;
57092;Laerm;42968;52.094;4.328;2022-11-15T00:31:20;39.93;36.34;47.91;;
57092;Laerm;42968;52.094;4.328;2022-11-15T00:33:45;39.89;35.04;49.89;;
57092;Laerm;42968;52.094;4.328;2022-11-15T00:36:11;54.45;35.94;74.29;;
57092;Laerm;42968;52.094;4.328;2022-11-15T00:38:37;55.26;36.69;73.33;;
57092;Laerm;42968;52.094;4.328;2022-11-15T00:41:03;40.92;37.32;44.58;;
57092;Laerm;42968;52.094;4.328;2022-11-15T00:43:29;40.52;36.69;44.31;;
57092;Laerm;42968;52.094;4.328;2022-11-15T00:45:54;41.44;36.45;44.39;;
57092;Laerm;42968;52.094;4.328;2022-11-15T00:48:20;41.70;35.66;53.26;;
57092;Laerm;42968;52.094;4.328;2022-11-15T00:50:45;40.07;36.20;45.42;;
57092;Laerm;42968;52.094;4.328;2022-11-15T00:53:10;52.89;36.69;66.65;;
57092;Laerm;42968;52.094;4.328;2022-11-15T00:55:36;52.23;36.20;68.61;;
57092;Laerm;42968;52.094;4.328;2022-11-15T00:58:01;54.55;37.12;72.98;;
57092;Laerm;42968;52.094;4.328;2022-11-15T01:00:26;41.31;35.66;47.48;;
57092;Laerm;42968;52.094;4.328;2022-11-15T01:02:52;51.22;37.12;70.97;;
57092;Laerm;42968;52.094;4.328;2022-11-15T01:05:17;40.65;35.66;44.54;;
57092;Laerm;42968;52.094;4.328;2022-11-15T01:07:43;50.73;37.12;66.11;;
57092;Laerm;42968;52.094;4.328;2022-11-15T01:10:08;54.24;36.69;68.08;;
57092;Laerm;42968;52.094;4.328;2022-11-15T01:12:33;41.25;37.32;48.85;;
57092;Laerm;42968;52.094;4.328;2022-11-15T01:14:59;51.68;36.45;70.40;;
57092;Laerm;42968;52.094;4.328;2022-11-15T01:17:24;41.42;36.69;46.64;;
57092;Laerm;42968;52.094;4.328;2022-11-15T01:19:49;52.60;36.45;71.68;;
57092;Laerm;42968;52.094;4.328;2022-11-15T01:22:14;49.86;37.32;67.64;;
57092;Laerm;42968;52.094;4.328;2022-11-15T01:24:40;40.56;36.20;44.65;;
57092;Laerm;42968;52.094;4.328;2022-11-15T01:27:05;49.68;36.69;66.35;;
57092;Laerm;42968;52.094;4.328;2022-11-15T01:29:30;39.89;36.20;42.98;;
57092;Laerm;42968;52.094;4.328;2022-11-15T01:31:55;52.28;36.69;69.79;;
57092;Laerm;42968;52.094;4.328;2022-11-15T01:34:21;42.79;36.20;59.50;;
57092;Laerm;42968;52.094;4.328;2022-11-15T01:36:46;39.98;35.94;43.54;;
57092;Laerm;42968;52.094;4.328;2022-11-15T01:39:11;40.47;36.91;54.33;;
57092;Laerm;42968;52.094;4.328;2022-11-15T01:41:37;49.39;34.31;66.37;;
57092;Laerm;42968;52.094;4.328;2022-11-15T01:46:47;55.32;35.94;75.05;;
57092;Laerm;42968;52.094;4.328;2022-11-15T01:49:14;40.57;35.36;44.03;;
57092;Laerm;42968;52.094;4.328;2022-11-15T01:51:41;40.29;35.04;44.47;;
57092;Laerm;42968;52.094;4.328;2022-11-15T01:54:10;40.40;35.94;45.54;;
57092;Laerm;42968;52.094;4.328;2022-11-15T01:56:41;40.39;35.36;50.68;;
57092;Laerm;42968;52.094;4.328;2022-11-15T01:59:08;51.44;36.45;68.22;;
57092;Laerm;42968;52.094;4.328;2022-11-15T02:01:34;41.96;38.21;45.57;;
57092;Laerm;42968;52.094;4.328;2022-11-15T02:06:34;41.28;37.12;48.03;;
57092;Laerm;42968;52.094;4.328;2022-11-15T02:09:00;40.02;35.94;44.23;;
57092;Laerm;42968;52.094;4.328;2022-11-15T02:11:26;49.48;36.45;64.75;;
57092;Laerm;42968;52.094;4.328;2022-11-15T02:13:51;41.05;35.66;46.10;;
57092;Laerm;42968;52.094;4.328;2022-11-15T02:19:00;54.37;36.91;71.84;;
57092;Laerm;42968;52.094;4.328;2022-11-15T02:21:31;57.13;36.69;72.10;;
57092;Laerm;42968;52.094;4.328;2022-11-15T02:24:07;56.88;36.69;73.00;;
57092;Laerm;42968;52.094;4.328;2022-11-15T02:29:14;41.11;37.88;44.69;;
57092;Laerm;42968;52.094;4.328;2022-11-15T02:39:23;42.27;36.45;68.73;;
57092;Laerm;42968;52.094;4.328;2022-11-15T02:41:57;58.41;37.32;74.41;;
57092;Laerm;42968;52.094;4.328;2022-11-15T02:44:38;40.56;35.66;44.31;;
57092;Laerm;42968;52.094;4.328;2022-11-15T02:47:10;40.70;36.69;45.72;;
57092;Laerm;42968;52.094;4.328;2022-11-15T02:49:47;40.70;37.32;45.07;;
57092;Laerm;42968;52.094;4.328;2022-11-15T02:52:16;55.00;37.32;74.57;;
57092;Laerm;42968;52.094;4.328;2022-11-15T02:54:42;43.04;38.52;54.36;;
57092;Laerm;42968;52.094;4.328;2022-11-15T02:57:12;41.11;36.69;46.84;;
57092;Laerm;42968;52.094;4.328;2022-11-15T03:07:18;43.74;37.12;54.70;;
57092;Laerm;42968;52.094;4.328;2022-11-15T03:09:52;53.58;38.81;70.65;;
57092;Laerm;42968;52.094;4.328;2022-11-15T03:17:16;41.39;35.66;49.08;;
57092;Laerm;42968;52.094;4.328;2022-11-15T03:19:46;41.63;38.52;44.94;;
57092;Laerm;42968;52.094;4.328;2022-11-15T03:22:16;54.05;37.52;70.56;;
57092;Laerm;42968;52.094;4.328;2022-11-15T03:24:43;42.08;35.94;45.83;;
57092;Laerm;42968;52.094;4.328;2022-11-15T03:27:10;50.99;36.45;66.27;;
57092;Laerm;42968;52.094;4.328;2022-11-15T03:29:38;54.52;37.70;72.10;;
57092;Laerm;42968;52.094;4.328;2022-11-15T03:32:10;55.16;37.12;71.08;;
57092;Laerm;42968;52.094;4.328;2022-11-15T03:37:22;55.69;38.67;71.86;;
57092;Laerm;42968;52.094;4.328;2022-11-15T03:39:49;51.87;37.70;68.53;;
57092;Laerm;42968;52.094;4.328;2022-11-15T03:42:32;52.39;37.88;68.00;;
57092;Laerm;42968;52.094;4.328;2022-11-15T03:45:02;43.26;37.52;57.84;;
57092;Laerm;42968;52.094;4.328;2022-11-15T03:50:01;53.72;39.34;70.72;;
57092;Laerm;42968;52.094;4.328;2022-11-15T03:52:30;43.88;37.88;64.33;;
57092;Laerm;42968;52.094;4.328;2022-11-15T03:54:56;57.36;37.32;72.27;;
57092;Laerm;42968;52.094;4.328;2022-11-15T03:57:21;53.75;39.46;69.45;;
57092;Laerm;42968;52.094;4.328;2022-11-15T03:59:47;48.42;38.81;66.01;;
57092;Laerm;42968;52.094;4.328;2022-11-15T04:02:12;54.17;37.70;73.17;;
57092;Laerm;42968;52.094;4.328;2022-11-15T04:04:37;59.74;38.52;76.13;;
57092;Laerm;42968;52.094;4.328;2022-11-15T04:07:03;58.71;38.05;72.48;;
57092;Laerm;42968;52.094;4.328;2022-11-15T04:09:28;50.04;38.95;71.33;;
57092;Laerm;42968;52.094;4.328;2022-11-15T04:11:53;56.33;39.08;73.53;;
57092;Laerm;42968;52.094;4.328;2022-11-15T04:14:19;59.31;40.62;76.02;;
57092;Laerm;42968;52.094;4.328;2022-11-15T04:16:44;60.35;40.89;76.10;;
57092;Laerm;42968;52.094;4.328;2022-11-15T04:19:09;61.40;40.33;73.47;;
57092;Laerm;42968;52.094;4.328;2022-11-15T04:21:53;56.24;38.21;73.42;;
57092;Laerm;42968;52.094;4.328;2022-11-15T04:24:37;59.78;41.06;73.12;;
57092;Laerm;42968;52.094;4.328;2022-11-15T04:27:02;62.03;40.98;76.17;;
57092;Laerm;42968;52.094;4.328;2022-11-15T04:29:28;60.30;42.16;72.70;;
57092;Laerm;42968;52.094;4.328;2022-11-15T04:31:59;62.82;41.61;75.58;;
57092;Laerm;42968;52.094;4.328;2022-11-15T04:34:24;63.42;43.58;78.70;;
57092;Laerm;42968;52.094;4.328;2022-11-15T04:36:49;64.91;45.51;78.19;;
57092;Laerm;42968;52.094;4.328;2022-11-15T04:39:33;61.08;42.41;73.76;;
57092;Laerm;42968;52.094;4.328;2022-11-15T04:41:58;64.66;45.33;76.35;;
57092;Laerm;42968;52.094;4.328;2022-11-15T04:44:24;61.94;41.22;75.40;;
57092;Laerm;42968;52.094;4.328;2022-11-15T04:46:49;61.72;41.22;76.12;;
57092;Laerm;42968;52.094;4.328;2022-11-15T04:49:14;62.26;45.86;74.32;;
57092;Laerm;42968;52.094;4.328;2022-11-15T04:51:39;61.88;42.53;74.83;;
57092;Laerm;42968;52.094;4.328;2022-11-15T04:54:05;59.19;41.53;73.94;;
57092;Laerm;42968;52.094;4.328;2022-11-15T04:56:30;59.26;41.68;71.97;;
57092;Laerm;42968;52.094;4.328;2022-11-15T04:58:55;58.92;41.68;74.48;;
57092;Laerm;42968;52.094;4.328;2022-11-15T05:01:20;61.62;43.77;75.13;;
57092;Laerm;42968;52.094;4.328;2022-11-15T05:03:46;62.08;44.15;78.69;;
57092;Laerm;42968;52.094;4.328;2022-11-15T05:06:30;63.17;43.34;78.61;;
57092;Laerm;42968;52.094;4.328;2022-11-15T05:08:55;63.92;43.90;74.97;;
57092;Laerm;42968;52.094;4.328;2022-11-15T05:11:20;65.96;45.11;77.83;;
57092;Laerm;42968;52.094;4.328;2022-11-15T05:13:46;61.49;45.94;72.98;;
57092;Laerm;42968;52.094;4.328;2022-11-15T05:16:11;65.29;48.98;75.27;;
57092;Laerm;42968;52.094;4.328;2022-11-15T05:18:37;65.47;44.54;75.43;;
57092;Laerm;42968;52.094;4.328;2022-11-15T05:21:10;66.03;46.87;79.86;;
57092;Laerm;42968;52.094;4.328;2022-11-15T05:23:36;64.76;44.39;75.59;;
57092;Laerm;42968;52.094;4.328;2022-11-15T05:26:02;65.77;47.61;76.11;;
57092;Laerm;42968;52.094;4.328;2022-11-15T05:28:28;65.64;44.66;74.77;;
57092;Laerm;42968;52.094;4.328;2022-11-15T05:31:00;66.75;47.40;79.35;;
57092;Laerm;42968;52.094;4.328;2022-11-15T05:33:25;67.82;44.62;80.45;;
57092;Laerm;42968;52.094;4.328;2022-11-15T05:35:54;65.64;47.12;73.85;;
57092;Laerm;42968;52.094;4.328;2022-11-15T05:38:21;68.27;45.75;79.72;;
57092;Laerm;42968;52.094;4.328;2022-11-15T05:40:46;68.19;45.83;77.61;;
57092;Laerm;42968;52.094;4.328;2022-11-15T05:43:12;69.28;50.07;79.57;;
57092;Laerm;42968;52.094;4.328;2022-11-15T05:45:37;66.88;47.84;76.32;;
57092;Laerm;42968;52.094;4.328;2022-11-15T05:48:04;67.35;44.27;79.05;;
57092;Laerm;42968;52.094;4.328;2022-11-15T05:50:31;67.29;45.72;77.37;;
57092;Laerm;42968;52.094;4.328;2022-11-15T05:52:56;68.13;51.81;78.42;;
57092;Laerm;42968;52.094;4.328;2022-11-15T05:55:22;66.81;49.07;76.08;;
57092;Laerm;42968;52.094;4.328;2022-11-15T05:57:47;68.57;51.30;79.55;;
57092;Laerm;42968;52.094;4.328;2022-11-15T06:00:13;66.83;49.06;74.60;;
57092;Laerm;42968;52.094;4.328;2022-11-15T06:02:38;68.17;51.27;76.99;;
57092;Laerm;42968;52.094;4.328;2022-11-15T06:05:03;69.31;52.83;78.91;;
57092;Laerm;42968;52.094;4.328;2022-11-15T06:07:29;68.96;48.64;77.24;;
57092;Laerm;42968;52.094;4.328;2022-11-15T06:09:54;67.57;50.05;79.86;;
57092;Laerm;42968;52.094;4.328;2022-11-15T06:12:19;69.34;54.09;80.55;;
57092;Laerm;42968;52.094;4.328;2022-11-15T06:14:45;68.86;50.37;77.43;;
57092;Laerm;42968;52.094;4.328;2022-11-15T06:17:10;67.60;49.97;74.70;;
57092;Laerm;42968;52.094;4.328;2022-11-15T06:19:35;68.29;47.48;77.90;;
57092;Laerm;42968;52.094;4.328;2022-11-15T06:22:00;68.99;55.32;76.18;;
57092;Laerm;42968;52.094;4.328;2022-11-15T06:24:26;68.72;48.76;77.64;;
57092;Laerm;42968;52.094;4.328;2022-11-15T06:26:51;69.70;53.65;80.26;;
57092;Laerm;42968;52.094;4.328;2022-11-15T06:29:16;69.58;50.04;76.98;;
57092;Laerm;42968;52.094;4.328;2022-11-15T06:31:41;68.62;46.18;77.36;;
57092;Laerm;42968;52.094;4.328;2022-11-15T06:34:07;68.38;47.65;76.50;;
57092;Laerm;42968;52.094;4.328;2022-11-15T06:36:33;69.60;47.20;80.27;;
57092;Laerm;42968;52.094;4.328;2022-11-15T06:38:59;70.01;46.80;79.51;;
57092;Laerm;42968;52.094;4.328;2022-11-15T06:41:24;69.44;47.59;78.65;;
57092;Laerm;42968;52.094;4.328;2022-11-15T06:43:49;69.20;47.59;79.68;;
57092;Laerm;42968;52.094;4.328;2022-11-15T06:46:14;70.57;51.84;81.01;;
57092;Laerm;42968;52.094;4.328;2022-11-15T06:48:40;68.48;56.94;77.25;;
57092;Laerm;42968;52.094;4.328;2022-11-15T06:51:05;68.96;52.04;78.41;;
57092;Laerm;42968;52.094;4.328;2022-11-15T06:53:30;70.30;49.85;77.81;;
57092;Laerm;42968;52.094;4.328;2022-11-15T06:56:02;69.44;51.47;78.03;;
57092;Laerm;42968;52.094;4.328;2022-11-15T06:58:28;68.53;49.83;78.03;;
57092;Laerm;42968;52.094;4.328;2022-11-15T07:00:57;69.84;51.09;77.02;;
57092;Laerm;42968;52.094;4.328;2022-11-15T07:03:23;70.27;53.06;78.68;;
57092;Laerm;42968;52.094;4.328;2022-11-15T07:05:52;70.68;53.80;87.60;;
57092;Laerm;42968;52.094;4.328;2022-11-15T07:08:18;69.08;48.02;78.82;;
57092;Laerm;42968;52.094;4.328;2022-11-15T07:10:44;69.22;47.42;76.23;;
57092;Laerm;42968;52.094;4.328;2022-11-15T07:13:09;72.78;61.82;82.36;;
57092;Laerm;42968;52.094;4.328;2022-11-15T07:15:34;69.33;58.24;77.15;;
57092;Laerm;42968;52.094;4.328;2022-11-15T07:18:00;68.59;58.15;77.46;;
57092;Laerm;42968;52.094;4.328;2022-11-15T07:20:25;70.45;59.62;79.49;;
57092;Laerm;42968;52.094;4.328;2022-11-15T07:22:51;70.73;60.03;84.47;;
57092;Laerm;42968;52.094;4.328;2022-11-15T07:25:16;71.17;59.29;83.20;;
57092;Laerm;42968;52.094;4.328;2022-11-15T07:27:41;69.48;53.37;77.24;;
57092;Laerm;42968;52.094;4.328;2022-11-15T07:30:07;69.78;56.20;83.06;;
57092;Laerm;42968;52.094;4.328;2022-11-15T07:32:32;71.71;57.70;83.79;;
57092;Laerm;42968;52.094;4.328;2022-11-15T07:34:57;71.81;53.74;80.92;;
57092;Laerm;42968;52.094;4.328;2022-11-15T07:37:22;70.26;50.71;77.17;;
57092;Laerm;42968;52.094;4.328;2022-11-15T07:39:48;68.95;52.69;76.61;;
57092;Laerm;42968;52.094;4.328;2022-11-15T07:42:13;71.32;49.75;80.21;;
57092;Laerm;42968;52.094;4.328;2022-11-15T07:44:57;70.63;59.09;85.88;;
57092;Laerm;42968;52.094;4.328;2022-11-15T07:47:22;68.79;51.23;76.85;;
57092;Laerm;42968;52.094;4.328;2022-11-15T07:49:47;70.53;49.93;83.06;;
57092;Laerm;42968;52.094;4.328;2022-11-15T07:52:13;70.96;54.11;77.04;;
57092;Laerm;42968;52.094;4.328;2022-11-15T07:54:38;69.98;53.97;78.09;;
57092;Laerm;42968;52.094;4.328;2022-11-15T07:57:04;68.32;49.24;77.90;;
57092;Laerm;42968;52.094;4.328;2022-11-15T07:59:29;68.95;52.49;76.01;;
57092;Laerm;42968;52.094;4.328;2022-11-15T08:01:55;72.42;60.35;79.57;;
57092;Laerm;42968;52.094;4.328;2022-11-15T08:04:20;70.73;54.80;82.88;;
57092;Laerm;42968;52.094;4.328;2022-11-15T08:06:45;69.67;50.48;84.95;;
57092;Laerm;42968;52.094;4.328;2022-11-15T08:09:11;69.36;53.84;77.47;;
57092;Laerm;42968;52.094;4.328;2022-11-15T08:11:36;69.89;51.11;77.38;;
57092;Laerm;42968;52.094;4.328;2022-11-15T08:14:01;69.20;54.21;79.11;;
57092;Laerm;42968;52.094;4.328;2022-11-15T08:16:26;69.37;51.60;76.71;;
57092;Laerm;42968;52.094;4.328;2022-11-15T08:18:52;69.57;49.04;76.40;;
57092;Laerm;42968;52.094;4.328;2022-11-15T08:21:18;68.94;53.74;80.43;;
57092;Laerm;42968;52.094;4.328;2022-11-15T08:23:43;68.92;51.00;83.25;;
57092;Laerm;42968;52.094;4.328;2022-11-15T08:26:09;69.24;48.92;78.52;;
57092;Laerm;42968;52.094;4.328;2022-11-15T08:28:34;70.89;49.75;86.07;;
57092;Laerm;42968;52.094;4.328;2022-11-15T08:30:59;69.86;50.55;80.65;;
57092;Laerm;42968;52.094;4.328;2022-11-15T08:33:25;69.83;49.73;83.29;;
57092;Laerm;42968;52.094;4.328;2022-11-15T08:35:50;71.16;52.22;86.63;;
57092;Laerm;42968;52.094;4.328;2022-11-15T08:38:15;68.80;48.71;78.15;;
57092;Laerm;42968;52.094;4.328;2022-11-15T08:40:41;69.62;49.10;78.78;;
57092;Laerm;42968;52.094;4.328;2022-11-15T08:43:06;69.74;48.55;77.54;;
57092;Laerm;42968;52.094;4.328;2022-11-15T08:45:33;69.92;48.05;81.29;;
57092;Laerm;42968;52.094;4.328;2022-11-15T08:48:00;68.44;52.13;76.62;;
57092;Laerm;42968;52.094;4.328;2022-11-15T08:50:25;68.72;56.13;81.27;;
57092;Laerm;42968;52.094;4.328;2022-11-15T08:52:51;70.08;49.58;82.38;;
57092;Laerm;42968;52.094;4.328;2022-11-15T08:55:16;69.48;48.10;80.92;;
57092;Laerm;42968;52.094;4.328;2022-11-15T08:57:41;70.12;53.78;82.21;;
57092;Laerm;42968;52.094;4.328;2022-11-15T09:00:07;68.68;49.36;79.61;;
57092;Laerm;42968;52.094;4.328;2022-11-15T09:02:32;68.55;52.08;78.28;;
57092;Laerm;42968;52.094;4.328;2022-11-15T09:04:57;69.23;46.71;79.25;;
57092;Laerm;42968;52.094;4.328;2022-11-15T09:07:23;68.88;52.48;77.01;;
57092;Laerm;42968;52.094;4.328;2022-11-15T09:09:48;67.79;51.23;76.61;;
57092;Laerm;42968;52.094;4.328;2022-11-15T09:12:14;70.56;56.07;84.90;;
57092;Laerm;42968;52.094;4.328;2022-11-15T09:14:39;69.47;54.29;84.69;;
57092;Laerm;42968;52.094;4.328;2022-11-15T09:17:06;70.04;49.41;79.62;;
57092;Laerm;42968;52.094;4.328;2022-11-15T09:19:32;69.15;49.38;79.81;;
57092;Laerm;42968;52.094;4.328;2022-11-15T09:21:57;69.91;56.23;79.64;;
57092;Laerm;42968;52.094;4.328;2022-11-15T09:24:22;69.26;56.45;79.25;;
57092;Laerm;42968;52.094;4.328;2022-11-15T09:26:49;69.73;51.70;78.78;;
57092;Laerm;42968;52.094;4.328;2022-11-15T09:29:14;69.47;53.56;79.07;;
57092;Laerm;42968;52.094;4.328;2022-11-15T09:31:40;67.41;53.32;81.73;;
57092;Laerm;42968;52.094;4.328;2022-11-15T09:34:05;69.10;52.77;77.24;;
57092;Laerm;42968;52.094;4.328;2022-11-15T09:36:30;69.30;49.08;80.00;;
57092;Laerm;42968;52.094;4.328;2022-11-15T09:38:57;70.03;51.61;81.71;;
57092;Laerm;42968;52.094;4.328;2022-11-15T09:41:30;69.27;51.92;81.45;;
57092;Laerm;42968;52.094;4.328;2022-11-15T09:44:07;70.30;47.84;83.28;;
57092;Laerm;42968;52.094;4.328;2022-11-15T09:46:42;70.85;56.39;79.12;;
57092;Laerm;42968;52.094;4.328;2022-11-15T09:49:11;70.36;49.85;80.61;;
57092;Laerm;42968;52.094;4.328;2022-11-15T09:51:42;68.23;55.79;77.36;;
57092;Laerm;42968;52.094;4.328;2022-11-15T09:56:52;80.63;52.04;104.01;;
57092;Laerm;42968;52.094;4.328;2022-11-15T09:59:32;67.94;53.48;78.25;;
57092;Laerm;42968;52.094;4.328;2022-11-15T10:04:30;68.86;47.90;79.39;;
57092;Laerm;42968;52.094;4.328;2022-11-15T10:09:42;68.45;52.47;77.02;;
57092;Laerm;42968;52.094;4.328;2022-11-15T10:12:09;70.47;56.20;80.49;;
57092;Laerm;42968;52.094;4.328;2022-11-15T10:14:37;68.82;47.96;81.47;;
57092;Laerm;42968;52.094;4.328;2022-11-15T10:24:42;68.26;49.40;77.73;;
57092;Laerm;42968;52.094;4.328;2022-11-15T10:27:12;69.28;51.84;82.21;;
57092;Laerm;42968;52.094;4.328;2022-11-15T10:29:42;69.51;53.06;80.37;;
57092;Laerm;42968;52.094;4.328;2022-11-15T10:32:10;67.77;56.14;75.60;;
57092;Laerm;42968;52.094;4.328;2022-11-15T10:34:35;69.88;54.24;83.55;;
57092;Laerm;42968;52.094;4.328;2022-11-15T10:37:01;68.68;50.24;79.37;;
57092;Laerm;42968;52.094;4.328;2022-11-15T10:39:29;67.48;52.99;76.34;;
57092;Laerm;42968;52.094;4.328;2022-11-15T10:41:55;70.30;51.67;83.00;;
57092;Laerm;42968;52.094;4.328;2022-11-15T10:51:49;69.67;52.81;80.65;;
57092;Laerm;42968;52.094;4.328;2022-11-15T10:57:06;67.61;48.94;76.90;;
57092;Laerm;42968;52.094;4.328;2022-11-15T10:59:32;69.51;56.85;78.79;;
57092;Laerm;42968;52.094;4.328;2022-11-15T11:01:59;67.36;49.79;74.69;;
57092;Laerm;42968;52.094;4.328;2022-11-15T11:04:24;68.49;49.84;76.46;;
57092;Laerm;42968;52.094;4.328;2022-11-15T11:06:51;68.84;49.94;80.80;;
57092;Laerm;42968;52.094;4.328;2022-11-15T11:09:33;68.33;47.43;77.32;;
57092;Laerm;42968;52.094;4.328;2022-11-15T11:11:59;68.91;52.06;80.79;;
57092;Laerm;42968;52.094;4.328;2022-11-15T11:29:36;70.42;47.32;86.86;;
57092;Laerm;42968;52.094;4.328;2022-11-15T11:40:04;70.03;48.37;77.41;;
57092;Laerm;42968;52.094;4.328;2022-11-15T11:48:12;68.24;47.55;76.73;;
57092;Laerm;42968;52.094;4.328;2022-11-15T11:50:38;68.89;49.90;78.26;;
57092;Laerm;42968;52.094;4.328;2022-11-15T11:53:11;68.29;50.55;77.94;;
57092;Laerm;42968;52.094;4.328;2022-11-15T12:00:53;69.02;47.38;76.66;;
57092;Laerm;42968;52.094;4.328;2022-11-15T12:03:28;68.78;51.62;76.28;;
57092;Laerm;42968;52.094;4.328;2022-11-15T12:06:02;67.62;53.32;76.72;;
57092;Laerm;42968;52.094;4.328;2022-11-15T12:08:32;70.39;51.57;83.90;;
57092;Laerm;42968;52.094;4.328;2022-11-15T12:11:03;67.71;52.72;76.02;;
57092;Laerm;42968;52.094;4.328;2022-11-15T12:13:31;69.77;50.94;78.31;;
57092;Laerm;42968;52.094;4.328;2022-11-15T12:18:26;69.91;54.57;84.71;;
57092;Laerm;42968;52.094;4.328;2022-11-15T12:21:04;69.23;46.35;79.29;;
57092;Laerm;42968;52.094;4.328;2022-11-15T12:23:32;69.06;49.15;77.52;;
57092;Laerm;42968;52.094;4.328;2022-11-15T12:26:01;69.05;46.76;78.88;;
57092;Laerm;42968;52.094;4.328;2022-11-15T12:28:38;68.90;49.95;78.86;;
57092;Laerm;42968;52.094;4.328;2022-11-15T12:31:10;67.29;47.76;79.26;;
57092;Laerm;42968;52.094;4.328;2022-11-15T12:33:40;68.17;46.40;75.43;;
57092;Laerm;42968;52.094;4.328;2022-11-15T12:36:10;69.44;54.42;79.23;;
57092;Laerm;42968;52.094;4.328;2022-11-15T12:41:15;69.65;55.79;76.50;;
57092;Laerm;42968;52.094;4.328;2022-11-15T12:43:42;69.67;52.36;77.78;;
57092;Laerm;42968;52.094;4.328;2022-11-15T12:48:53;67.27;50.98;78.52;;
57092;Laerm;42968;52.094;4.328;2022-11-15T12:51:20;68.69;49.75;78.05;;
57092;Laerm;42968;52.094;4.328;2022-11-15T12:53:46;67.82;50.26;74.79;;
57092;Laerm;42968;52.094;4.328;2022-11-15T13:01:54;68.52;48.32;78.59;;
57092;Laerm;42968;52.094;4.328;2022-11-15T13:06:44;67.74;46.87;77.81;;
57092;Laerm;42968;52.094;4.328;2022-11-15T13:11:54;67.67;51.58;75.80;;
57092;Laerm;42968;52.094;4.328;2022-11-15T13:17:15;67.97;53.27;74.49;;
57092;Laerm;42968;52.094;4.328;2022-11-15T13:19:42;68.47;52.92;78.59;;
57092;Laerm;42968;52.094;4.328;2022-11-15T13:22:11;69.82;50.15;80.71;;
57092;Laerm;42968;52.094;4.328;2022-11-15T13:24:55;69.94;50.09;82.53;;
57092;Laerm;42968;52.094;4.328;2022-11-15T13:27:21;66.52;47.12;75.65;;
57092;Laerm;42968;52.094;4.328;2022-11-15T13:29:46;70.09;48.95;75.72;;
57092;Laerm;42968;52.094;4.328;2022-11-15T13:32:12;70.67;46.87;83.66;;
57092;Laerm;42968;52.094;4.328;2022-11-15T13:34:38;68.12;50.52;79.20;;
57092;Laerm;42968;52.094;4.328;2022-11-15T13:37:29;67.19;48.87;75.19;;
57092;Laerm;42968;52.094;4.328;2022-11-15T13:39:54;68.23;56.70;76.01;;
57092;Laerm;42968;52.094;4.328;2022-11-15T13:42:35;68.33;51.39;77.95;;
57092;Laerm;42968;52.094;4.328;2022-11-15T13:45:01;68.36;51.53;77.27;;
57092;Laerm;42968;52.094;4.328;2022-11-15T13:47:27;70.19;49.98;81.65;;
57092;Laerm;42968;52.094;4.328;2022-11-15T13:49:53;70.81;48.99;83.06;;
57092;Laerm;42968;52.094;4.328;2022-11-15T13:52:21;69.78;48.58;79.16;;
57092;Laerm;42968;52.094;4.328;2022-11-15T13:54:56;69.55;55.47;77.78;;
57092;Laerm;42968;52.094;4.328;2022-11-15T13:57:24;69.65;52.68;82.80;;
57092;Laerm;42968;52.094;4.328;2022-11-15T14:00:01;70.47;52.69;89.25;;
57092;Laerm;42968;52.094;4.328;2022-11-15T14:02:30;68.84;57.39;79.57;;
57092;Laerm;42968;52.094;4.328;2022-11-15T14:04:57;69.81;52.66;82.82;;
57092;Laerm;42968;52.094;4.328;2022-11-15T14:07:24;69.98;53.33;79.93;;
57092;Laerm;42968;52.094;4.328;2022-11-15T14:09:50;82.78;48.63;104.24;;
57092;Laerm;42968;52.094;4.328;2022-11-15T14:12:24;69.19;56.71;78.32;;
57092;Laerm;42968;52.094;4.328;2022-11-15T14:14:50;70.86;51.06;93.04;;
57092;Laerm;42968;52.094;4.328;2022-11-15T14:19:53;67.66;52.22;77.86;;
57092;Laerm;42968;52.094;4.328;2022-11-15T14:22:20;69.75;52.94;77.91;;
57092;Laerm;42968;52.094;4.328;2022-11-15T14:24:47;69.86;57.30;81.38;;
57092;Laerm;42968;52.094;4.328;2022-11-15T14:29:41;68.68;53.22;77.46;;
57092;Laerm;42968;52.094;4.328;2022-11-15T14:32:14;70.53;50.56;90.74;;
57092;Laerm;42968;52.094;4.328;2022-11-15T14:34:39;71.08;49.51;81.31;;
57092;Laerm;42968;52.094;4.328;2022-11-15T14:37:04;69.62;48.02;77.88;;
57092;Laerm;42968;52.094;4.328;2022-11-15T14:39:30;69.51;56.84;82.17;;
57092;Laerm;42968;52.094;4.328;2022-11-15T14:41:55;68.88;53.23;79.42;;
57092;Laerm;42968;52.094;4.328;2022-11-15T14:44:20;69.95;49.12;77.66;;
57092;Laerm;42968;52.094;4.328;2022-11-15T14:46:46;70.92;54.29;89.59;;
57092;Laerm;42968;52.094;4.328;2022-11-15T14:49:13;69.23;48.18;81.17;;
57092;Laerm;42968;52.094;4.328;2022-11-15T14:51:39;69.29;49.10;79.80;;
57092;Laerm;42968;52.094;4.328;2022-11-15T14:54:04;70.16;53.65;80.02;;
57092;Laerm;42968;52.094;4.328;2022-11-15T14:56:30;71.00;48.91;85.92;;
57092;Laerm;42968;52.094;4.328;2022-11-15T14:58:55;69.79;56.70;93.53;;
57092;Laerm;42968;52.094;4.328;2022-11-15T15:01:24;68.12;47.04;79.70;;
57092;Laerm;42968;52.094;4.328;2022-11-15T15:03:50;70.21;58.52;95.31;;
57092;Laerm;42968;52.094;4.328;2022-11-15T15:06:17;68.79;49.36;79.79;;
57092;Laerm;42968;52.094;4.328;2022-11-15T15:08:42;69.94;54.39;81.67;;
57092;Laerm;42968;52.094;4.328;2022-11-15T15:11:14;69.62;59.35;77.93;;
57092;Laerm;42968;52.094;4.328;2022-11-15T15:13:41;69.64;50.26;82.40;;
57092;Laerm;42968;52.094;4.328;2022-11-15T15:16:06;70.85;59.72;84.29;;
57092;Laerm;42968;52.094;4.328;2022-11-15T15:18:32;68.86;58.52;77.41;;
57092;Laerm;42968;52.094;4.328;2022-11-15T15:20:58;70.02;57.52;79.82;;
57092;Laerm;42968;52.094;4.328;2022-11-15T15:23:32;68.55;49.39;79.19;;
57092;Laerm;42968;52.094;4.328;2022-11-15T15:25:57;70.19;51.47;79.15;;
57092;Laerm;42968;52.094;4.328;2022-11-15T15:28:23;72.62;57.90;87.92;;
57092;Laerm;42968;52.094;4.328;2022-11-15T15:30:48;70.15;53.42;76.98;;
57092;Laerm;42968;52.094;4.328;2022-11-15T15:33:14;70.86;49.24;79.94;;
57092;Laerm;42968;52.094;4.328;2022-11-15T15:35:40;69.15;52.84;77.32;;
57092;Laerm;42968;52.094;4.328;2022-11-15T15:38:05;69.86;53.11;77.82;;
57092;Laerm;42968;52.094;4.328;2022-11-15T15:40:31;69.81;53.97;76.86;;
57092;Laerm;42968;52.094;4.328;2022-11-15T15:42:57;69.09;54.23;77.07;;
57092;Laerm;42968;52.094;4.328;2022-11-15T15:45:22;71.31;48.70;78.31;;
57092;Laerm;42968;52.094;4.328;2022-11-15T15:47:47;69.54;58.94;76.41;;